RKSO

Osan Air Base Airport

South Korea
TAF RKSO 241900Z 2419/2601 09006KT 9999 FEW040 QNH3009INS BECMG 2501/2502 04009KT 9999 FEW060 QNH3006INS BECMG 2511/2512 07009KT 9999 SCT050 QNH3009INS BECMG 2521/2522 VRB06KT 9999 FEW020 BKN160 QNH3013INS TX26/2504Z TN10/2419Z
Issued Valid From Valid To
Sep-24 @ 19:00 UTC
(4 hours ago)
Sep-24 @ 19:00 UTC
(4 hours ago)
Sep-26 @ 01:00 UTC
(-1 days ago)
Sep-24 @ 19:00 to Sep-25 @ 01:00
TAF RKSO 241900Z 2419/2601 09006KT 9999 FEW040 QNH3009INS
Wind Visibility Clouds Readings
90° at 6 knots 10,000+ meters
  • Few at 4,000' AGL
Altimeter 30.09" Hg
Pressure 1019 hPa
Becoming Sep-25 @ 01:00 to Sep-25 @ 11:00
BECMG 2501/2502 04009KT 9999 FEW060 QNH3006INS
Wind Visibility Clouds Readings
40° at 9 knots 10,000+ meters
  • Few at 6,000' AGL
Altimeter 30.06" Hg
Pressure 1018 hPa
Becoming Sep-25 @ 11:00 to Sep-25 @ 21:00
BECMG 2511/2512 07009KT 9999 SCT050 QNH3009INS
Wind Visibility Clouds Readings
70° at 9 knots 10,000+ meters
  • Scattered at 5,000' AGL
Altimeter 30.09" Hg
Pressure 1019 hPa
Becoming Sep-25 @ 21:00 to Sep-26 @ 01:00
BECMG 2521/2522 VRB06KT 9999 FEW020 BKN160 QNH3013INS TX26/2504Z TN10/2419Z
Wind Visibility Clouds Readings
Variable at 6 knots 10,000+ meters
  • Few at 2,000' AGL
  • Broken at 16,000' AGL
Altimeter 30.12" Hg
Pressure 1020 hPa
TAF RKSO 241900Z 2419/2601 09006KT 9999 FEW040 QNH3009INS BECMG 2501/2502 04009KT 9999 FEW060 QNH3006INS BECMG 2511/2512 07009KT 9999 SCT050 QNH3009INS BECMG 2521/2522 VRB06KT 9999 FEW020 BKN160 QNH3013INS TX26/2504Z TN10/2419Z
Issued Sep-24 @ 19:00 UTC
(4 hours ago)
Valid From Sep-24 @ 19:00 UTC
(4 hours ago)
Valid To Sep-26 @ 01:00 UTC
(-1 days ago)
Sep-24 @ 19:00 - Sep-25 @ 01:00
Wind Visibility
90° at 6 knots 10,000+ meters
Clouds
  • Few at 4,000' AGL
Becoming Sep-25 @ 01:00 - Sep-25 @ 11:00
Wind Visibility
40° at 9 knots 10,000+ meters
Clouds
  • Few at 6,000' AGL
Becoming Sep-25 @ 11:00 - Sep-25 @ 21:00
Wind Visibility
70° at 9 knots 10,000+ meters
Clouds
  • Scattered at 5,000' AGL
Becoming Sep-25 @ 21:00 - Sep-26 @ 01:00
Wind Visibility
Variable at 6 knots 10,000+ meters
Clouds
  • Few at 2,000' AGL
  • Broken at 16,000' AGL